Time;durP1;ratioP1;P1;durP2;ratioP2;P2;SDS_P1;SDS_P2;PMS_P1;PMS_P2;Temp;Humidity;BMP_temperature;BMP_pressure;BME280_temperature;BME280_humidity;BME280_pressure;Samples;Min_cycle;Max_cycle;Signal;HPM_P1;HPM_P2
2024/04/03 00:02:18;;;;;;;0.50;0.50;;;;;;;-1.30;98.53;99532.47;5087391;28;20020;-61
2024/04/03 00:04:43;;;;;;;0.80;0.80;;;;;;;-1.34;98.19;99535.72;5086004;28;20024;-61
2024/04/03 00:07:08;;;;;;;0.50;0.50;;;;;;;-1.34;98.40;99535.72;5087294;28;20036;-60
2024/04/03 00:09:34;;;;;;;0.60;0.60;;;;;;;-1.38;98.35;99529.72;5087016;28;20063;-60
2024/04/03 00:11:59;;;;;;;0.63;0.55;;;;;;;-1.35;98.50;99539.09;5087228;28;20021;-61
2024/04/03 00:14:24;;;;;;;0.60;0.60;;;;;;;-1.38;98.48;99550.09;5088109;28;20023;-60
2024/04/03 00:16:50;;;;;;;0.50;0.50;;;;;;;-1.40;98.56;99548.31;5087280;28;20067;-61
2024/04/03 00:19:15;;;;;;;0.70;0.70;;;;;;;-1.39;98.49;99552.59;5085595;28;20036;-60
2024/04/03 00:21:40;;;;;;;0.50;0.50;;;;;;;-1.43;98.35;99545.69;5087053;28;20027;-61
2024/04/03 00:24:06;;;;;;;0.95;0.95;;;;;;;-1.44;98.33;99544.84;5087055;28;20028;-60
2024/04/03 00:26:31;;;;;;;0.60;0.60;;;;;;;-1.44;98.43;99537.19;5086876;28;20020;-61
2024/04/03 00:28:56;;;;;;;1.20;1.02;;;;;;;-1.44;98.32;99546.50;5087100;28;20016;-60
2024/04/03 00:31:22;;;;;;;1.05;1.05;;;;;;;-1.60;98.22;99517.22;5086696;28;20023;-61
2024/04/03 00:33:47;;;;;;;0.60;0.60;;;;;;;-1.52;98.29;99536.13;5086650;28;20017;-59
2024/04/03 00:36:13;;;;;;;0.65;0.65;;;;;;;-1.47;98.00;99548.97;5087067;28;20034;-59
2024/04/03 00:38:38;;;;;;;0.60;0.60;;;;;;;-1.50;98.01;99550.59;5086857;28;20060;-60
2024/04/03 00:41:03;;;;;;;0.70;0.70;;;;;;;-1.50;98.09;99550.59;5086542;28;20476;-60
2024/04/03 00:43:29;;;;;;;0.93;0.60;;;;;;;-1.56;98.01;99539.38;5086464;28;20026;-61
2024/04/03 00:45:58;;;;;;;1.75;1.65;;;;;;;-1.50;97.94;99557.38;5086371;28;20028;-60
2024/04/03 00:48:25;;;;;;;0.40;0.40;;;;;;;-1.55;98.02;99541.13;5086556;28;20043;-60
2024/04/03 00:50:51;;;;;;;1.30;1.20;;;;;;;-1.53;97.88;99553.06;5086123;28;20024;-61
2024/04/03 00:53:18;;;;;;;0.40;0.40;;;;;;;-1.51;98.11;99553.13;5086407;28;20029;-61
2024/04/03 00:55:44;;;;;;;0.70;0.70;;;;;;;-1.56;98.17;99545.34;5086019;28;20032;-61
2024/04/03 00:58:09;;;;;;;0.70;0.70;;;;;;;-1.54;97.99;99555.56;5084756;28;20091;-60
2024/04/03 01:00:35;;;;;;;1.15;0.85;;;;;;;-1.55;97.84;99561.50;5085920;28;20085;-61
2024/04/03 01:03:03;;;;;;;0.50;0.50;;;;;;;-1.57;97.80;99558.03;5086223;28;20024;-60
2024/04/03 01:05:28;;;;;;;0.65;0.65;;;;;;;-1.54;97.86;99561.53;5085961;28;20138;-60
2024/04/03 01:07:53;;;;;;;0.40;0.40;;;;;;;-1.55;97.94;99559.78;5085902;28;20060;-61
2024/04/03 01:10:19;;;;;;;0.80;0.75;;;;;;;-1.54;97.86;99569.19;5085984;28;20043;-60
2024/04/03 01:12:45;;;;;;;0.93;0.68;;;;;;;-1.54;97.89;99569.19;5086041;28;20036;-61
2024/04/03 01:15:11;;;;;;;0.60;0.60;;;;;;;-1.53;97.98;99572.56;5086192;28;20350;-60
2024/04/03 01:17:36;;;;;;;0.50;0.50;;;;;;;-1.52;97.79;99570.06;5084500;28;20499;-61
2024/04/03 01:20:02;;;;;;;1.15;1.05;;;;;;;-1.53;97.66;99570.00;5085503;28;20102;-61
2024/04/03 01:22:27;;;;;;;1.50;1.40;;;;;;;-1.54;97.74;99564.09;5085867;28;20028;-61
2024/04/03 01:24:52;;;;;;;2.88;2.67;;;;;;;-1.59;97.64;99547.81;5084577;28;20067;-60
2024/04/03 01:27:18;;;;;;;5.18;0.90;;;;;;;-1.53;97.53;99565.81;5085806;28;20031;-61
2024/04/03 01:29:43;;;;;;;0.70;0.70;;;;;;;-1.59;97.72;99554.59;5085714;28;20020;-62
2024/04/03 01:32:08;;;;;;;0.60;0.60;;;;;;;-1.54;97.45;99570.84;5085602;28;20020;-60
2024/04/03 01:34:34;;;;;;;0.70;0.70;;;;;;;-1.60;97.60;99563.91;5085395;28;20058;-60
2024/04/03 01:36:59;;;;;;;1.55;1.45;;;;;;;-1.54;97.82;99571.72;5085859;28;20488;-60
2024/04/03 01:39:25;;;;;;;0.60;0.60;;;;;;;-1.54;97.92;99574.28;5085471;28;20051;-60
2024/04/03 01:41:50;;;;;;;2.03;1.08;;;;;;;-1.53;97.76;99567.47;5085142;28;20035;-60
2024/04/03 01:44:15;;;;;;;1.17;1.17;;;;;;;-1.54;97.63;99561.53;5085612;28;20031;-60
2024/04/03 01:46:41;;;;;;;0.55;0.55;;;;;;;-1.51;97.74;99574.34;5085427;28;20020;-60
2024/04/03 01:49:06;;;;;;;1.38;0.80;;;;;;;-1.51;97.64;99579.44;5083700;28;20020;-60
2024/04/03 01:51:31;;;;;;;0.60;0.60;;;;;;;-1.53;97.64;99570.00;5085122;28;20093;-61
2024/04/03 01:53:57;;;;;;;0.73;0.73;;;;;;;-1.55;97.42;99574.22;5084955;28;20520;-60
2024/04/03 01:56:22;;;;;;;3.72;1.13;;;;;;;-1.59;97.43;99570.72;5085194;28;20035;-59
2024/04/03 01:58:47;;;;;;;1.33;0.65;;;;;;;-1.57;97.21;99579.28;5085166;28;20529;-60
2024/04/03 02:01:13;;;;;;;0.52;0.52;;;;;;;-1.56;97.58;99577.56;5085009;28;20029;-61
2024/04/03 02:03:38;;;;;;;1.27;1.25;;;;;;;-1.56;97.14;99583.53;5085487;28;20024;-60
2024/04/03 02:06:03;;;;;;;0.65;0.65;;;;;;;-1.60;97.19;99579.19;5084957;28;20031;-60
2024/04/03 02:08:29;;;;;;;1.38;1.27;;;;;;;-1.59;97.14;99572.41;5084702;28;20056;-60
2024/04/03 02:10:54;;;;;;;1.90;1.80;;;;;;;-1.58;97.46;99586.88;5083446;28;20020;-61
2024/04/03 02:13:19;;;;;;;1.17;0.68;;;;;;;-1.56;97.36;99577.56;5085069;28;20020;-61
2024/04/03 02:15:55;;;;;;;1.20;1.00;;;;;;;-1.63;97.37;99576.56;5084850;28;20032;-61
2024/04/03 02:18:21;;;;;;;0.90;0.90;;;;;;;-1.58;97.11;99579.25;5084842;28;20025;-61
2024/04/03 02:20:46;;;;;;;0.70;0.70;;;;;;;-1.59;97.22;99580.91;5084781;28;20054;-60
2024/04/03 02:23:12;;;;;;;0.63;0.63;;;;;;;-1.57;97.12;99586.03;5085062;28;20020;-60
2024/04/03 02:25:38;;;;;;;1.02;1.02;;;;;;;-1.61;97.17;99580.00;5084910;28;20032;-60
2024/04/03 02:28:04;;;;;;;0.85;0.80;;;;;;;-1.64;97.23;99582.44;5085074;28;20032;-61
2024/04/03 02:30:29;;;;;;;1.27;1.17;;;;;;;-1.59;97.27;99593.63;5084759;28;20031;-61
2024/04/03 02:32:55;;;;;;;2.30;1.40;;;;;;;-1.60;97.04;99598.69;5084950;28;20033;-60
2024/04/03 02:35:20;;;;;;;0.88;0.88;;;;;;;-1.70;97.27;99595.00;5084676;28;20036;-61
2024/04/03 02:37:45;;;;;;;0.80;0.80;;;;;;;-1.66;97.15;99587.50;5084946;28;20102;-61
2024/04/03 02:40:11;;;;;;;0.70;0.70;;;;;;;-1.65;96.95;99591.78;5084704;28;20362;-61
2024/04/03 02:42:36;;;;;;;1.17;1.13;;;;;;;-1.67;97.10;99610.38;5084837;28;20024;-60
2024/04/03 02:45:02;;;;;;;1.33;1.23;;;;;;;-1.73;97.14;99588.16;5084651;28;20028;-61
2024/04/03 02:47:27;;;;;;;1.45;1.45;;;;;;;-1.69;97.05;99599.31;5084426;28;20398;-60
2024/04/03 02:49:52;;;;;;;0.80;0.80;;;;;;;-1.69;97.17;99609.47;5084467;28;20055;-60
2024/04/03 02:52:18;;;;;;;0.63;0.63;;;;;;;-1.68;97.09;99609.53;5083457;28;20025;-58
2024/04/03 02:54:43;;;;;;;0.90;0.90;;;;;;;-1.72;97.07;99614.44;5083387;28;20024;-61
2024/04/03 02:57:08;;;;;;;1.00;1.00;;;;;;;-1.72;97.07;99602.59;5084709;28;20028;-59
2024/04/03 02:59:37;;;;;;;1.75;1.20;;;;;;;-1.72;96.99;99622.09;5084546;28;20054;-61
2024/04/03 03:02:02;;;;;;;0.70;0.70;;;;;;;-1.73;97.01;99622.91;5084324;28;20025;-61
2024/04/03 03:04:28;;;;;;;0.70;0.70;;;;;;;-1.76;97.00;99621.16;5084443;28;20023;-61
2024/04/03 03:06:53;;;;;;;0.65;0.65;;;;;;;-1.73;97.01;99636.53;5084625;28;20021;-60
2024/04/03 03:09:21;;;;;;;0.75;0.75;;;;;;;-1.80;96.75;99621.88;5084262;28;20052;-61
2024/04/03 03:11:47;;;;;;;0.70;0.70;;;;;;;-1.74;97.08;99637.31;5084390;28;20012;-60
2024/04/03 03:14:12;;;;;;;0.93;0.93;;;;;;;-1.75;96.95;99640.69;5084213;28;20055;-61
2024/04/03 03:16:37;;;;;;;0.70;0.70;;;;;;;-2.16;96.93;99581.00;5084694;28;20020;-61
2024/04/03 03:19:03;;;;;;;0.75;0.75;;;;;;;-1.75;96.91;99639.03;5082822;28;20102;-60
2024/04/03 03:21:28;;;;;;;1.13;0.75;;;;;;;-1.77;96.86;99638.09;5085354;28;20021;-61
2024/04/03 03:23:54;;;;;;;0.60;0.60;;;;;;;-1.75;96.77;99648.31;5088419;28;20081;-61
2024/04/03 03:26:19;;;;;;;0.50;0.50;;;;;;;-1.79;96.85;99639.72;5088155;28;20020;-61
2024/04/03 03:28:45;;;;;;;0.60;0.60;;;;;;;-1.77;96.89;99653.38;5088125;28;20028;-60
2024/04/03 03:31:12;;;;;;;0.80;0.80;;;;;;;-1.77;96.69;99653.38;5088017;28;20017;-60
2024/04/03 03:33:37;;;;;;;0.85;0.85;;;;;;;-1.81;96.76;99660.88;5087951;28;20021;-60
2024/04/03 03:36:03;;;;;;;1.77;1.67;;;;;;;-1.87;96.51;99651.38;5087803;28;20043;-60
2024/04/03 03:38:28;;;;;;;1.27;1.25;;;;;;;-1.85;96.59;99643.81;5088161;28;20036;-60
2024/04/03 03:40:54;;;;;;;0.57;0.57;;;;;;;-1.85;96.69;99648.88;5087655;28;20024;-60
2024/04/03 03:43:20;;;;;;;0.70;0.70;;;;;;;-1.86;96.63;99653.09;5087838;28;20020;-62
2024/04/03 03:45:50;;;;;;;0.60;0.60;;;;;;;-1.93;96.68;99651.22;5087931;28;20101;-60
2024/04/03 03:48:16;;;;;;;1.15;1.13;;;;;;;-1.92;96.66;99637.66;5087713;28;20035;-60
2024/04/03 03:53:28;;;;;;;0.60;0.60;;;;;;;-1.98;96.65;99647.66;5081280;28;20031;-61
2024/04/03 03:55:53;;;;;;;0.57;0.57;;;;;;;-2.01;96.60;99644.19;5087658;28;20020;-60
2024/04/03 03:58:20;;;;;;;0.68;0.68;;;;;;;-1.97;96.64;99654.44;5087540;28;20088;-61
2024/04/03 04:00:45;;;;;;;0.90;0.88;;;;;;;-1.99;96.64;99644.22;5087112;28;20033;-61
2024/04/03 04:03:11;;;;;;;0.55;0.55;;;;;;;-2.00;96.79;99645.91;5086131;28;20024;-61
2024/04/03 04:05:36;;;;;;;0.68;0.68;;;;;;;-2.09;96.63;99632.91;5087145;28;20066;-61
2024/04/03 04:08:02;;;;;;;0.50;0.50;;;;;;;-2.06;96.47;99645.72;5087264;28;20048;-61
2024/04/03 04:10:28;;;;;;;0.50;0.50;;;;;;;-2.09;96.44;99650.72;5087165;28;20024;-62
2024/04/03 04:12:54;;;;;;;0.60;0.60;;;;;;;-2.08;96.52;99642.28;5087243;28;20031;-60
2024/04/03 04:15:20;;;;;;;1.60;1.50;;;;;;;-2.04;96.60;99649.19;5087336;28;20021;-60
2024/04/03 04:17:45;;;;;;;0.85;0.85;;;;;;;-2.01;96.32;99671.28;5087301;28;20077;-59
2024/04/03 04:20:11;;;;;;;0.60;0.60;;;;;;;-2.08;96.42;99657.53;5086887;28;20033;-61
2024/04/03 04:22:36;;;;;;;1.00;0.93;;;;;;;-2.01;96.36;99672.16;5087088;28;20465;-61
2024/04/03 04:25:02;;;;;;;1.50;1.15;;;;;;;-2.02;96.46;99667.91;5087068;28;20020;-60
2024/04/03 04:27:28;;;;;;;0.60;0.60;;;;;;;-2.02;96.34;99680.63;5087079;28;20099;-60
2024/04/03 04:29:54;;;;;;;0.93;0.90;;;;;;;-2.09;96.20;99665.97;5086770;28;20055;-61
2024/04/03 04:32:19;;;;;;;1.10;0.70;;;;;;;-2.08;96.05;99685.53;5086541;28;20103;-61
2024/04/03 04:34:45;;;;;;;1.25;1.08;;;;;;;-2.07;95.96;99677.06;5085347;28;20036;-61
2024/04/03 04:37:11;;;;;;;0.50;0.50;;;;;;;-2.09;96.08;99696.50;5086578;28;20021;-60
2024/04/03 04:39:37;;;;;;;0.90;0.90;;;;;;;-2.17;95.99;99675.06;5086598;28;20041;-61
2024/04/03 04:42:03;;;;;;;0.60;0.60;;;;;;;-2.15;96.03;99687.00;5085405;28;20067;-61
2024/04/03 04:44:28;;;;;;;0.88;0.88;;;;;;;-2.20;96.16;99682.56;5086798;28;20021;-62
2024/04/03 04:46:59;;;;;;;1.17;1.17;;;;;;;-2.15;96.04;99687.00;5086811;28;20020;-62
2024/04/03 04:49:24;;;;;;;0.55;0.55;;;;;;;-2.18;96.17;99686.03;5086486;28;20027;-60
2024/04/03 04:51:50;;;;;;;0.50;0.50;;;;;;;-2.20;95.99;99685.09;5084908;28;20052;-61
2024/04/03 04:54:16;;;;;;;2.00;1.40;;;;;;;-2.13;95.89;99693.00;5086523;28;20025;-61
2024/04/03 04:56:45;;;;;;;0.60;0.60;;;;;;;-2.14;95.81;99692.97;5086147;28;20025;-60
2024/04/03 04:59:13;;;;;;;0.90;0.90;;;;;;;-2.18;96.01;99692.00;5085139;28;20020;-61
2024/04/03 05:01:39;;;;;;;0.52;0.52;;;;;;;-2.10;95.86;99704.06;5086214;28;20037;-61
2024/04/03 05:04:05;;;;;;;0.85;0.85;;;;;;;-2.09;95.75;99709.22;5085843;28;20088;-61
2024/04/03 05:06:31;;;;;;;0.50;0.50;;;;;;;-2.32;95.74;99668.69;5085221;28;20021;-61
2024/04/03 05:08:57;;;;;;;0.60;0.60;;;;;;;-2.10;95.83;99704.94;5086128;28;20056;-61
2024/04/03 05:11:23;;;;;;;0.85;0.82;;;;;;;-2.09;95.75;99701.59;5085890;28;20063;-61
2024/04/03 05:13:48;;;;;;;0.90;0.90;;;;;;;-2.14;95.52;99696.34;5086133;28;20028;-61
2024/04/03 05:16:19;;;;;;;0.80;0.80;;;;;;;-2.10;95.64;99701.53;5085980;28;20385;-62
2024/04/03 05:18:44;;;;;;;0.82;0.82;;;;;;;-2.12;95.80;99702.38;5086118;28;20044;-61
2024/04/03 05:21:10;;;;;;;1.33;0.90;;;;;;;-2.10;95.75;99704.94;5084377;28;20086;-60
2024/04/03 05:23:35;;;;;;;0.60;0.60;;;;;;;-2.10;95.68;99692.22;5085649;28;20029;-61
2024/04/03 05:26:03;;;;;;;1.73;0.90;;;;;;;-2.05;95.43;99705.09;5085759;28;20060;-61
2024/04/03 05:28:30;;;;;;;0.50;0.50;;;;;;;-2.05;95.36;99697.47;5084601;28;20044;-61
2024/04/03 05:31:02;;;;;;;0.50;0.50;;;;;;;-2.01;95.39;99702.69;5084059;28;20091;-61
2024/04/03 05:33:27;;;;;;;2.72;1.02;;;;;;;-2.02;95.32;99706.06;5085957;28;20020;-60
2024/04/03 05:35:54;;;;;;;1.65;1.55;;;;;;;-2.02;95.32;99705.19;5085485;28;20048;-62
2024/04/03 05:38:19;;;;;;;0.85;0.85;;;;;;;-2.01;95.36;99705.25;5084290;28;20025;-61
2024/04/03 05:40:45;;;;;;;0.85;0.85;;;;;;;-1.88;95.60;99720.88;5085246;28;20036;-61
2024/04/03 05:43:11;;;;;;;0.57;0.57;;;;;;;-1.82;95.52;99726.16;5085525;28;20016;-60
2024/04/03 05:45:36;;;;;;;0.50;0.50;;;;;;;-1.78;95.45;99728.00;5083557;28;20017;-61
2024/04/03 05:48:01;;;;;;;0.50;0.50;;;;;;;-1.79;95.34;99722.88;5085492;28;20031;-61
2024/04/03 05:50:27;;;;;;;0.50;0.50;;;;;;;-1.75;95.42;99723.00;5085328;28;20021;-61
2024/04/03 05:52:53;;;;;;;0.60;0.60;;;;;;;-1.78;95.47;99716.94;5085418;28;20021;-60
2024/04/03 05:55:18;;;;;;;0.70;0.70;;;;;;;-1.69;95.16;99721.47;5084228;28;20110;-60
2024/04/03 05:57:44;;;;;;;0.50;0.50;;;;;;;-1.71;95.24;99716.31;5085286;28;20067;-61
2024/04/03 06:00:12;;;;;;;0.55;0.55;;;;;;;-1.66;95.23;99713.94;5085231;28;20027;-61
2024/04/03 06:02:37;;;;;;;1.10;1.00;;;;;;;-1.62;95.19;99720.81;5085134;28;20073;-61
2024/04/03 06:05:03;;;;;;;0.50;0.50;;;;;;;-1.59;95.21;99715.81;5085140;28;20067;-60
2024/04/03 06:07:29;;;;;;;1.20;1.10;;;;;;;-1.60;94.82;99701.38;5083888;28;20110;-61
2024/04/03 06:09:54;;;;;;;0.65;0.65;;;;;;;-1.58;94.96;99698.88;5085085;28;20028;-63
2024/04/03 06:12:19;;;;;;;0.60;0.60;;;;;;;-1.54;94.89;99708.31;5085080;28;20031;-60
2024/04/03 06:14:45;;;;;;;0.80;0.80;;;;;;;-1.54;94.92;99706.66;5085387;28;20077;-61
2024/04/03 06:17:11;;;;;;;0.70;0.70;;;;;;;-1.44;94.91;99712.00;5085145;28;20481;-61
2024/04/03 06:19:36;;;;;;;1.05;1.05;;;;;;;-1.42;94.56;99713.78;5084829;28;20036;-61
2024/04/03 06:22:01;;;;;;;5.97;2.15;;;;;;;-1.43;94.31;99713.72;5084946;28;20038;-61
2024/04/03 06:24:27;;;;;;;0.80;0.80;;;;;;;-1.43;94.55;99712.06;5084965;28;20042;-60
2024/04/03 06:26:52;;;;;;;0.50;0.50;;;;;;;-1.30;94.17;99720.91;5084988;28;20032;-60
2024/04/03 06:29:18;;;;;;;0.50;0.50;;;;;;;-1.31;92.65;99719.16;5085171;28;20028;-60
2024/04/03 06:31:44;;;;;;;0.57;0.57;;;;;;;-1.33;92.90;99715.75;5084839;28;20016;-60
2024/04/03 06:34:09;;;;;;;0.70;0.70;;;;;;;-1.26;92.89;99721.84;5084894;28;20050;-58
2024/04/03 06:36:34;;;;;;;1.20;1.08;;;;;;;-1.20;93.07;99723.72;5084868;28;20024;-61
2024/04/03 06:39:00;;;;;;;0.70;0.70;;;;;;;-1.10;93.44;99722.31;5084658;28;20020;-61
2024/04/03 06:41:26;;;;;;;0.50;0.50;;;;;;;-0.89;94.48;99732.22;5084841;28;20496;-62
2024/04/03 06:43:52;;;;;;;0.60;0.60;;;;;;;-0.65;95.24;99726.03;5085260;28;20114;-61
2024/04/03 06:46:17;;;;;;;0.52;0.52;;;;;;;-0.26;95.71;99730.44;5084910;28;20027;-61
2024/04/03 06:48:44;;;;;;;1.45;1.35;;;;;;;0.07;96.32;99735.47;5084961;28;20017;-61
2024/04/03 06:51:09;;;;;;;0.50;0.50;;;;;;;0.36;95.78;99736.16;5084671;28;20057;-61
2024/04/03 06:53:35;;;;;;;0.50;0.50;;;;;;;0.76;96.80;99729.28;5085015;28;20025;-63
2024/04/03 06:56:01;;;;;;;0.93;0.93;;;;;;;1.42;98.44;99739.09;5087053;28;20043;-65
2024/04/03 06:58:37;;;;;;;0.75;0.75;;;;;;;1.72;97.98;99740.47;5087699;28;20039;-63
2024/04/03 07:01:03;;;;;;;0.93;0.93;;;;;;;1.95;96.30;99743.41;5088666;28;20038;-65
2024/04/03 07:03:29;;;;;;;1.27;1.17;;;;;;;1.78;94.40;99732.03;5088042;28;20032;-64
2024/04/03 07:05:55;;;;;;;1.85;1.40;;;;;;;1.83;95.59;99743.19;5088782;28;20031;-64
2024/04/03 07:08:20;;;;;;;0.70;0.70;;;;;;;1.78;94.92;99735.44;5088723;28;20049;-63
2024/04/03 07:10:45;;;;;;;0.50;0.50;;;;;;;2.01;94.87;99757.16;5088836;28;20016;-64
2024/04/03 07:13:11;;;;;;;1.08;1.02;;;;;;;1.87;93.07;99739.84;5088683;28;20017;-64
2024/04/03 07:15:36;;;;;;;3.63;2.47;;;;;;;2.09;95.39;99735.09;5088769;28;20027;-63
2024/04/03 07:18:02;;;;;;;1.38;0.70;;;;;;;2.34;92.11;99748.25;5088588;28;20035;-63
2024/04/03 07:20:32;;;;;;;0.70;0.70;;;;;;;2.08;91.46;99741.91;5088280;28;20089;-62
2024/04/03 07:22:58;;;;;;;0.40;0.40;;;;;;;2.17;93.32;99745.44;5088482;28;20024;-62
2024/04/03 07:25:25;;;;;;;2.17;1.38;;;;;;;2.08;92.03;99753.84;5088475;28;20029;-61
2024/04/03 07:27:52;;;;;;;0.88;0.73;;;;;;;2.19;93.00;99752.31;5088346;28;20096;-62
2024/04/03 07:30:18;;;;;;;3.03;1.30;;;;;;;2.58;94.18;99762.25;5086960;28;20380;-61
2024/04/03 07:32:43;;;;;;;0.55;0.55;;;;;;;2.62;91.64;99761.44;5088135;28;20516;-62
2024/04/03 07:35:09;;;;;;;0.47;0.47;;;;;;;2.62;90.27;99760.59;5087979;28;20027;-63
2024/04/03 07:37:39;;;;;;;0.80;0.80;;;;;;;2.58;89.35;99760.56;5088239;28;20039;-62
2024/04/03 07:40:08;;;;;;;2.47;1.67;;;;;;;2.79;91.63;99768.50;5086545;28;20033;-63
2024/04/03 07:42:38;;;;;;;0.77;0.77;;;;;;;3.14;89.13;99764.66;5088014;28;20052;-63
2024/04/03 07:45:05;;;;;;;0.55;0.55;;;;;;;3.19;90.13;99763.03;5087109;28;20020;-62
2024/04/03 07:47:32;;;;;;;1.17;1.10;;;;;;;3.66;90.97;99772.06;5086588;28;20028;-64
2024/04/03 07:49:58;;;;;;;0.80;0.75;;;;;;;4.01;90.66;99773.22;5086529;28;20024;-64
2024/04/03 07:52:24;;;;;;;0.80;0.80;;;;;;;4.09;84.47;99768.13;5087973;28;20045;-64
2024/04/03 07:54:49;;;;;;;0.50;0.50;;;;;;;3.97;86.50;99780.06;5087844;28;20056;-64
2024/04/03 07:57:14;;;;;;;1.13;0.98;;;;;;;4.00;84.19;99783.47;5087685;28;20055;-65
2024/04/03 07:59:40;;;;;;;1.33;1.15;;;;;;;3.81;81.98;99773.91;5087915;28;20032;-62
2024/04/03 08:02:06;;;;;;;0.70;0.70;;;;;;;3.66;82.33;99766.91;5087610;28;20494;-63
2024/04/03 08:04:32;;;;;;;0.40;0.40;;;;;;;3.44;79.19;99771.84;5086195;28;20028;-62
2024/04/03 08:07:01;;;;;;;0.50;0.50;;;;;;;3.04;78.97;99773.94;5086750;28;20472;-61
2024/04/03 08:09:26;;;;;;;0.95;0.90;;;;;;;2.71;77.38;99766.72;5087191;28;20048;-61
2024/04/03 08:11:51;;;;;;;0.80;0.80;;;;;;;2.53;78.66;99769.00;5087620;28;20517;-61
2024/04/03 08:14:18;;;;;;;0.60;0.60;;;;;;;2.35;77.84;99773.03;5087570;28;20028;-61
2024/04/03 08:16:44;;;;;;;1.83;0.90;;;;;;;2.09;77.40;99778.63;5087515;28;20025;-61
2024/04/03 08:19:09;;;;;;;0.60;0.60;;;;;;;2.06;79.16;99791.38;5087189;28;20082;-61
2024/04/03 08:21:36;;;;;;;0.52;0.52;;;;;;;2.34;80.48;99796.94;5086969;28;20036;-61
2024/04/03 08:24:01;;;;;;;0.70;0.70;;;;;;;2.64;73.53;99790.53;5087205;28;20088;-61
2024/04/03 08:26:26;;;;;;;0.50;0.50;;;;;;;2.29;75.43;99796.00;5087248;28;20024;-61
2024/04/03 08:28:52;;;;;;;0.88;0.75;;;;;;;2.35;75.60;99796.94;5087163;28;20025;-62
2024/04/03 08:31:17;;;;;;;0.65;0.65;;;;;;;2.16;73.27;99772.75;5085645;28;20025;-63
2024/04/03 08:33:43;;;;;;;0.55;0.55;;;;;;;1.99;74.17;99785.28;5087067;28;20032;-63
2024/04/03 08:36:10;;;;;;;0.50;0.50;;;;;;;2.07;74.96;99790.53;5086765;28;20379;-62
2024/04/03 08:38:36;;;;;;;0.43;0.43;;;;;;;2.07;75.19;99813.56;5085614;28;20565;-62
2024/04/03 08:41:02;;;;;;;0.60;0.60;;;;;;;2.37;76.41;99811.47;5086859;28;20096;-63
2024/04/03 08:43:28;;;;;;;0.68;0.68;;;;;;;2.47;74.91;99810.78;5085622;28;20111;-62
2024/04/03 08:45:55;;;;;;;1.00;0.90;;;;;;;2.70;74.96;99800.88;5086610;28;20079;-64
2024/04/03 08:48:22;;;;;;;0.60;0.60;;;;;;;2.95;74.66;99790.97;5085508;28;20157;-63
2024/04/03 08:50:49;;;;;;;0.50;0.50;;;;;;;3.26;75.73;99810.97;5086508;28;20017;-62
2024/04/03 08:53:20;;;;;;;0.73;0.73;;;;;;;3.67;74.37;99814.88;5086812;28;20468;-63
2024/04/03 08:55:51;;;;;;;0.70;0.70;;;;;;;3.56;72.01;99826.72;5085070;28;20024;-63
2024/04/03 08:58:16;;;;;;;0.50;0.50;;;;;;;3.63;73.81;99823.38;5086631;28;20036;-63
2024/04/03 09:00:43;;;;;;;0.50;0.50;;;;;;;3.93;71.78;99823.69;5086046;28;20025;-63
2024/04/03 09:03:13;;;;;;;0.50;0.50;;;;;;;3.93;71.94;99816.81;5086420;28;20038;-62
2024/04/03 09:05:39;;;;;;;0.70;0.65;;;;;;;4.35;73.21;99836.88;5086320;28;20124;-62
2024/04/03 09:08:06;;;;;;;0.82;0.82;;;;;;;4.66;70.79;99852.53;5086152;28;20118;-62
2024/04/03 09:10:43;;;;;;;0.65;0.65;;;;;;;4.58;69.04;99849.03;5086128;28;20040;-62
2024/04/03 09:13:09;;;;;;;0.50;0.50;;;;;;;4.83;70.80;99854.34;5086234;28;20503;-63
2024/04/03 09:15:35;;;;;;;0.73;0.73;;;;;;;5.29;71.17;99863.16;5086127;28;20109;-63
2024/04/03 09:18:05;;;;;;;0.55;0.55;;;;;;;5.14;65.94;99851.97;5086108;28;20064;-63
2024/04/03 09:20:31;;;;;;;1.20;0.73;;;;;;;4.73;66.44;99855.16;5085874;28;20066;-62
2024/04/03 09:22:57;;;;;;;0.50;0.50;;;;;;;4.46;65.79;99835.25;5086000;28;20106;-63
2024/04/03 09:25:27;;;;;;;0.50;0.50;;;;;;;4.65;65.77;99825.09;5085938;28;20021;-62
2024/04/03 09:28:03;;;;;;;0.50;0.50;;;;;;;4.89;66.60;99851.81;5085930;28;20024;-62
2024/04/03 09:30:29;;;;;;;0.50;0.50;;;;;;;5.06;65.14;99864.75;5085974;28;20126;-64
2024/04/03 09:33:01;;;;;;;0.70;0.70;;;;;;;5.02;66.20;99875.03;5084123;28;20024;-65
2024/04/03 09:35:34;;;;;;;;;;;;;;;5.32;62.78;99883.75;5086066;28;20024;-64
2024/04/03 09:38:00;;;;;;;1.08;0.98;;;;;;;4.75;60.17;99871.44;5086055;28;19908;-65
2024/04/03 09:40:27;;;;;;;0.40;0.40;;;;;;;4.26;59.19;99877.91;5084378;28;20040;-65
2024/04/03 09:42:57;;;;;;;0.60;0.60;;;;;;;3.96;59.48;99846.81;5085746;28;20032;-65
2024/04/03 09:45:26;;;;;;;0.60;0.60;;;;;;;3.83;61.13;99867.22;5085775;28;20051;-66
2024/04/03 09:48:11;;;;;;;0.50;0.50;;;;;;;4.25;60.34;99866.75;5085727;28;20024;-65
2024/04/03 09:50:41;;;;;;;0.50;0.50;;;;;;;4.43;59.68;99860.06;5084845;28;20063;-67
2024/04/03 09:53:09;;;;;;;0.50;0.50;;;;;;;4.34;59.89;99827.44;5083913;28;20323;-66
2024/04/03 09:55:36;;;;;;;0.50;0.50;;;;;;;4.64;59.58;99858.50;5085624;28;20050;-64
2024/04/03 09:58:10;;;;;;;0.60;0.60;;;;;;;4.44;60.14;99878.06;5085493;28;20035;-66
2024/04/03 10:00:40;;;;;;;0.50;0.50;;;;;;;4.28;57.32;99886.50;5084048;28;20025;-65
2024/04/03 10:03:22;;;;;;;0.60;0.57;;;;;;;3.96;57.72;99878.47;5085288;28;20051;-66
2024/04/03 10:05:48;;;;;;;0.70;0.70;;;;;;;3.91;57.32;99856.19;5085324;28;20091;-65
2024/04/03 10:08:17;;;;;;;0.60;0.60;;;;;;;3.96;58.24;99875.91;5076934;28;20049;-65
2024/04/03 10:10:46;;;;;;;0.50;0.50;;;;;;;4.28;58.44;99878.78;5084129;28;20083;-65
2024/04/03 10:13:22;;;;;;;1.67;0.90;;;;;;;4.14;58.34;99847.84;5085233;28;20032;-65
2024/04/03 10:16:00;;;;;;;1.77;0.80;;;;;;;4.65;58.17;99891.09;5085294;28;20105;-64
2024/04/03 10:18:27;;;;;;;0.45;0.45;;;;;;;4.63;58.74;99880.81;5085291;28;20038;-63
2024/04/03 10:20:55;;;;;;;0.60;0.60;;;;;;;4.62;58.18;99880.78;5084863;28;20032;-64
2024/04/03 10:23:21;;;;;;;0.43;0.43;;;;;;;4.70;59.28;99903.13;5085161;28;20070;-63
2024/04/03 10:25:47;;;;;;;0.43;0.43;;;;;;;4.73;54.68;99893.72;5083906;28;20020;-64
2024/04/03 10:28:14;;;;;;;0.50;0.50;;;;;;;4.49;56.44;99906.38;5085140;28;20507;-65
2024/04/03 10:30:40;;;;;;;0.50;0.50;;;;;;;4.33;57.87;99905.38;5084547;28;20024;-63
2024/04/03 10:33:06;;;;;;;0.63;0.52;;;;;;;4.10;57.99;99924.03;5084923;28;20028;-63
2024/04/03 10:35:32;;;;;;;0.45;0.45;;;;;;;4.27;60.67;99908.75;5084960;28;20384;-63
2024/04/03 10:38:01;;;;;;;0.60;0.60;;;;;;;4.71;59.43;99922.84;5085117;28;20020;-63
2024/04/03 10:40:27;;;;;;;1.38;0.70;;;;;;;5.01;57.44;99917.06;5085030;28;20092;-64
2024/04/03 10:42:53;;;;;;;0.55;0.55;;;;;;;4.91;56.20;99916.13;5084771;28;20047;-63
2024/04/03 10:45:21;;;;;;;0.43;0.43;;;;;;;4.69;55.48;99913.41;5085214;28;20023;-63
2024/04/03 10:47:47;;;;;;;0.50;0.50;;;;;;;4.41;55.95;99914.03;5084876;28;20021;-62
2024/04/03 10:50:13;;;;;;;0.47;0.47;;;;;;;4.40;55.48;99929.44;5083325;28;20024;-63
2024/04/03 10:52:38;;;;;;;0.60;0.60;;;;;;;4.25;55.60;99927.59;5084733;28;20054;-62
2024/04/03 10:55:04;;;;;;;1.27;0.60;;;;;;;4.20;56.99;99922.41;5084409;28;20545;-63
2024/04/03 10:57:30;;;;;;;0.40;0.40;;;;;;;4.29;57.46;99925.06;5084659;28;20472;-64
2024/04/03 10:59:56;;;;;;;0.43;0.43;;;;;;;4.47;58.33;99916.66;5085082;28;20476;-63
2024/04/03 11:02:22;;;;;;;2.25;0.95;;;;;;;4.73;56.31;99914.28;5084546;28;20081;-64
2024/04/03 11:04:50;;;;;;;0.90;0.90;;;;;;;4.58;56.74;99918.47;5084559;28;20024;-63
2024/04/03 11:07:15;;;;;;;0.50;0.50;;;;;;;4.41;56.94;99910.63;5084891;28;20060;-63
2024/04/03 11:09:40;;;;;;;0.80;0.80;;;;;;;4.26;56.68;99917.31;5084360;28;20045;-64
2024/04/03 11:12:10;;;;;;;0.60;0.60;;;;;;;3.88;57.49;99899.81;5084705;28;20373;-64
2024/04/03 11:14:36;;;;;;;0.63;0.63;;;;;;;3.72;57.28;99918.47;5084940;28;20063;-64
2024/04/03 11:17:07;;;;;;;0.95;0.68;;;;;;;3.88;58.56;99908.38;5084428;28;20024;-63
2024/04/03 11:19:32;;;;;;;0.50;0.50;;;;;;;4.40;55.52;99932.00;5083270;28;20028;-63
2024/04/03 11:21:58;;;;;;;0.60;0.60;;;;;;;4.36;55.69;99936.25;5084569;28;20031;-64
2024/04/03 11:24:23;;;;;;;0.63;0.60;;;;;;;4.01;56.26;99908.50;5084740;28;20028;-62
2024/04/03 11:26:49;;;;;;;0.50;0.50;;;;;;;3.89;56.97;99915.22;5084161;28;20020;-64
2024/04/03 11:29:31;;;;;;;0.40;0.40;;;;;;;3.81;56.92;99907.44;5084892;28;20046;-66
2024/04/03 11:31:58;;;;;;;0.65;0.65;;;;;;;2.83;58.77;99934.34;5084385;28;20027;-63
2024/04/03 11:34:25;;;;;;;1.60;0.82;;;;;;;2.09;60.85;99934.84;5084581;28;20028;-63
2024/04/03 11:36:51;;;;;;;0.50;0.50;;;;;;;1.64;62.46;99947.63;5084279;28;20103;-62